sensor_id;sensor_type;location;lat;lon;timestamp;temperature;humidity
69895;DHT22;57172;52.034;5.090;2023-07-22T00:00:47;15.70;82.50
69895;DHT22;57172;52.034;5.090;2023-07-22T00:03:14;15.70;82.50
69895;DHT22;57172;52.034;5.090;2023-07-22T00:05:41;15.70;82.60
69895;DHT22;57172;52.034;5.090;2023-07-22T00:08:08;15.80;82.70
69895;DHT22;57172;52.034;5.090;2023-07-22T00:10:36;15.80;82.90
69895;DHT22;57172;52.034;5.090;2023-07-22T00:13:06;15.80;83.00
69895;DHT22;57172;52.034;5.090;2023-07-22T00:15:34;15.80;83.10
69895;DHT22;57172;52.034;5.090;2023-07-22T00:18:01;15.90;82.90
69895;DHT22;57172;52.034;5.090;2023-07-22T00:20:28;15.90;82.80
69895;DHT22;57172;52.034;5.090;2023-07-22T00:22:55;15.90;82.80
69895;DHT22;57172;52.034;5.090;2023-07-22T00:25:22;15.90;82.80
69895;DHT22;57172;52.034;5.090;2023-07-22T00:27:49;15.90;82.90
69895;DHT22;57172;52.034;5.090;2023-07-22T00:30:16;15.90;82.90
69895;DHT22;57172;52.034;5.090;2023-07-22T00:32:44;15.90;82.80
69895;DHT22;57172;52.034;5.090;2023-07-22T00:35:11;15.90;82.70
69895;DHT22;57172;52.034;5.090;2023-07-22T00:37:38;15.90;82.60
69895;DHT22;57172;52.034;5.090;2023-07-22T00:40:05;15.90;82.50
69895;DHT22;57172;52.034;5.090;2023-07-22T00:42:41;15.90;82.50
69895;DHT22;57172;52.034;5.090;2023-07-22T00:45:08;15.90;82.50
69895;DHT22;57172;52.034;5.090;2023-07-22T00:47:36;15.90;82.40
69895;DHT22;57172;52.034;5.090;2023-07-22T00:50:04;15.80;82.30
69895;DHT22;57172;52.034;5.090;2023-07-22T00:52:33;15.80;82.30
69895;DHT22;57172;52.034;5.090;2023-07-22T00:55:01;15.80;82.20
69895;DHT22;57172;52.034;5.090;2023-07-22T00:57:28;15.70;82.30
69895;DHT22;57172;52.034;5.090;2023-07-22T00:59:55;15.70;82.40
69895;DHT22;57172;52.034;5.090;2023-07-22T01:02:22;15.70;82.50
69895;DHT22;57172;52.034;5.090;2023-07-22T01:04:51;15.60;82.50
69895;DHT22;57172;52.034;5.090;2023-07-22T01:07:19;15.60;82.30
69895;DHT22;57172;52.034;5.090;2023-07-22T01:09:46;15.60;82.30
69895;DHT22;57172;52.034;5.090;2023-07-22T01:12:13;15.50;82.40
69895;DHT22;57172;52.034;5.090;2023-07-22T01:14:41;15.50;82.50
69895;DHT22;57172;52.034;5.090;2023-07-22T01:17:09;15.50;82.60
69895;DHT22;57172;52.034;5.090;2023-07-22T01:19:36;15.40;82.80
69895;DHT22;57172;52.034;5.090;2023-07-22T01:22:05;15.40;82.80
69895;DHT22;57172;52.034;5.090;2023-07-22T01:24:34;15.40;82.70
69895;DHT22;57172;52.034;5.090;2023-07-22T01:27:01;15.40;82.70
69895;DHT22;57172;52.034;5.090;2023-07-22T01:29:30;15.40;82.70
69895;DHT22;57172;52.034;5.090;2023-07-22T01:31:57;15.30;82.90
69895;DHT22;57172;52.034;5.090;2023-07-22T01:34:24;15.30;82.90
69895;DHT22;57172;52.034;5.090;2023-07-22T01:36:51;15.30;83.00
69895;DHT22;57172;52.034;5.090;2023-07-22T01:39:18;15.30;83.10
69895;DHT22;57172;52.034;5.090;2023-07-22T01:41:46;15.20;83.20
69895;DHT22;57172;52.034;5.090;2023-07-22T01:44:13;15.20;83.40
69895;DHT22;57172;52.034;5.090;2023-07-22T01:46:40;15.20;83.50
69895;DHT22;57172;52.034;5.090;2023-07-22T01:49:11;15.20;83.60
69895;DHT22;57172;52.034;5.090;2023-07-22T01:51:40;15.20;83.70
69895;DHT22;57172;52.034;5.090;2023-07-22T01:54:07;15.20;83.60
69895;DHT22;57172;52.034;5.090;2023-07-22T01:56:36;15.20;83.70
69895;DHT22;57172;52.034;5.090;2023-07-22T01:59:03;15.20;83.70
69895;DHT22;57172;52.034;5.090;2023-07-22T02:01:31;15.20;83.60
69895;DHT22;57172;52.034;5.090;2023-07-22T02:03:59;15.20;83.60
69895;DHT22;57172;52.034;5.090;2023-07-22T02:06:26;15.20;83.70
69895;DHT22;57172;52.034;5.090;2023-07-22T02:08:54;15.20;83.80
69895;DHT22;57172;52.034;5.090;2023-07-22T02:11:22;15.20;83.80
69895;DHT22;57172;52.034;5.090;2023-07-22T02:13:49;15.20;83.90
69895;DHT22;57172;52.034;5.090;2023-07-22T02:16:16;15.20;83.90
69895;DHT22;57172;52.034;5.090;2023-07-22T02:18:44;15.20;84.00
69895;DHT22;57172;52.034;5.090;2023-07-22T02:21:10;15.20;83.90
69895;DHT22;57172;52.034;5.090;2023-07-22T02:23:37;15.10;83.90
69895;DHT22;57172;52.034;5.090;2023-07-22T02:26:04;15.10;83.90
69895;DHT22;57172;52.034;5.090;2023-07-22T02:28:33;15.10;83.90
69895;DHT22;57172;52.034;5.090;2023-07-22T02:31:02;15.10;83.90
69895;DHT22;57172;52.034;5.090;2023-07-22T02:33:33;15.10;83.80
69895;DHT22;57172;52.034;5.090;2023-07-22T02:36:00;15.10;83.80
69895;DHT22;57172;52.034;5.090;2023-07-22T02:38:27;15.10;84.00
69895;DHT22;57172;52.034;5.090;2023-07-22T02:40:54;15.10;84.10
69895;DHT22;57172;52.034;5.090;2023-07-22T02:43:25;15.10;84.10
69895;DHT22;57172;52.034;5.090;2023-07-22T02:45:53;15.10;84.00
69895;DHT22;57172;52.034;5.090;2023-07-22T02:48:20;15.10;83.90
69895;DHT22;57172;52.034;5.090;2023-07-22T02:50:47;15.00;84.00
69895;DHT22;57172;52.034;5.090;2023-07-22T02:53:14;15.00;84.00
69895;DHT22;57172;52.034;5.090;2023-07-22T02:55:41;15.00;84.10
69895;DHT22;57172;52.034;5.090;2023-07-22T02:58:08;15.00;84.00
69895;DHT22;57172;52.034;5.090;2023-07-22T03:00:35;15.00;84.10
69895;DHT22;57172;52.034;5.090;2023-07-22T03:03:01;15.00;84.10
69895;DHT22;57172;52.034;5.090;2023-07-22T03:05:30;14.90;84.10
69895;DHT22;57172;52.034;5.090;2023-07-22T03:07:58;14.90;84.10
69895;DHT22;57172;52.034;5.090;2023-07-22T03:10:25;14.90;84.10
69895;DHT22;57172;52.034;5.090;2023-07-22T03:12:52;14.90;84.10
69895;DHT22;57172;52.034;5.090;2023-07-22T03:15:23;14.90;84.00
69895;DHT22;57172;52.034;5.090;2023-07-22T03:17:53;14.90;84.00
69895;DHT22;57172;52.034;5.090;2023-07-22T03:20:20;14.90;84.10
69895;DHT22;57172;52.034;5.090;2023-07-22T03:22:49;14.80;84.00
69895;DHT22;57172;52.034;5.090;2023-07-22T03:25:16;14.80;84.10
69895;DHT22;57172;52.034;5.090;2023-07-22T03:27:44;14.80;84.10
69895;DHT22;57172;52.034;5.090;2023-07-22T03:30:13;14.80;84.20
69895;DHT22;57172;52.034;5.090;2023-07-22T03:32:47;14.80;84.20
69895;DHT22;57172;52.034;5.090;2023-07-22T03:35:15;14.80;84.10
69895;DHT22;57172;52.034;5.090;2023-07-22T03:37:42;14.80;84.10
69895;DHT22;57172;52.034;5.090;2023-07-22T03:40:10;14.80;84.10
69895;DHT22;57172;52.034;5.090;2023-07-22T03:42:51;14.80;84.20
69895;DHT22;57172;52.034;5.090;2023-07-22T03:45:19;14.80;84.30
69895;DHT22;57172;52.034;5.090;2023-07-22T03:47:50;14.80;84.20
69895;DHT22;57172;52.034;5.090;2023-07-22T03:50:18;14.80;84.10
69895;DHT22;57172;52.034;5.090;2023-07-22T03:52:45;14.80;84.20
69895;DHT22;57172;52.034;5.090;2023-07-22T03:55:12;14.80;84.40
69895;DHT22;57172;52.034;5.090;2023-07-22T03:57:39;14.80;84.40
69895;DHT22;57172;52.034;5.090;2023-07-22T04:00:06;14.80;84.40
69895;DHT22;57172;52.034;5.090;2023-07-22T04:02:40;14.80;84.50
69895;DHT22;57172;52.034;5.090;2023-07-22T04:05:08;14.80;84.60
69895;DHT22;57172;52.034;5.090;2023-07-22T04:07:35;14.80;84.90
69895;DHT22;57172;52.034;5.090;2023-07-22T04:10:02;14.80;85.10
69895;DHT22;57172;52.034;5.090;2023-07-22T04:12:30;14.80;85.20
69895;DHT22;57172;52.034;5.090;2023-07-22T04:14:57;14.80;85.30
69895;DHT22;57172;52.034;5.090;2023-07-22T04:17:24;14.80;85.50
69895;DHT22;57172;52.034;5.090;2023-07-22T04:19:51;14.90;85.60
69895;DHT22;57172;52.034;5.090;2023-07-22T04:22:20;14.90;85.80
69895;DHT22;57172;52.034;5.090;2023-07-22T04:24:47;15.00;85.90
69895;DHT22;57172;52.034;5.090;2023-07-22T04:27:17;15.00;86.00
69895;DHT22;57172;52.034;5.090;2023-07-22T04:29:45;15.00;86.10
69895;DHT22;57172;52.034;5.090;2023-07-22T04:32:12;15.10;86.20
69895;DHT22;57172;52.034;5.090;2023-07-22T04:34:39;15.10;86.40
69895;DHT22;57172;52.034;5.090;2023-07-22T04:37:06;15.10;86.50
69895;DHT22;57172;52.034;5.090;2023-07-22T04:39:33;15.20;86.60
69895;DHT22;57172;52.034;5.090;2023-07-22T04:42:01;15.20;86.70
69895;DHT22;57172;52.034;5.090;2023-07-22T04:44:28;15.30;86.80
69895;DHT22;57172;52.034;5.090;2023-07-22T04:46:55;15.30;86.90
69895;DHT22;57172;52.034;5.090;2023-07-22T04:49:22;15.40;86.80
69895;DHT22;57172;52.034;5.090;2023-07-22T04:51:49;15.40;86.70
69895;DHT22;57172;52.034;5.090;2023-07-22T04:54:17;15.40;86.90
69895;DHT22;57172;52.034;5.090;2023-07-22T04:56:44;15.50;86.90
69895;DHT22;57172;52.034;5.090;2023-07-22T04:59:11;15.50;86.90
69895;DHT22;57172;52.034;5.090;2023-07-22T05:01:40;15.50;86.80
69895;DHT22;57172;52.034;5.090;2023-07-22T05:04:07;15.50;86.80
69895;DHT22;57172;52.034;5.090;2023-07-22T05:06:34;15.50;86.80
69895;DHT22;57172;52.034;5.090;2023-07-22T05:09:02;15.50;86.60
69895;DHT22;57172;52.034;5.090;2023-07-22T05:11:30;15.50;86.60
69895;DHT22;57172;52.034;5.090;2023-07-22T05:13:57;15.50;86.60
69895;DHT22;57172;52.034;5.090;2023-07-22T05:16:24;15.50;86.80
69895;DHT22;57172;52.034;5.090;2023-07-22T05:18:52;15.50;87.00
69895;DHT22;57172;52.034;5.090;2023-07-22T05:21:19;15.60;87.10
69895;DHT22;57172;52.034;5.090;2023-07-22T05:23:46;15.70;87.20
69895;DHT22;57172;52.034;5.090;2023-07-22T05:26:14;15.70;87.10
69895;DHT22;57172;52.034;5.090;2023-07-22T05:28:40;15.70;87.10
69895;DHT22;57172;52.034;5.090;2023-07-22T05:31:07;15.80;87.00
69895;DHT22;57172;52.034;5.090;2023-07-22T05:33:34;15.80;86.90
69895;DHT22;57172;52.034;5.090;2023-07-22T05:36:02;15.80;86.60
69895;DHT22;57172;52.034;5.090;2023-07-22T05:38:29;15.80;86.80
69895;DHT22;57172;52.034;5.090;2023-07-22T05:40:58;15.90;87.10
69895;DHT22;57172;52.034;5.090;2023-07-22T05:43:25;16.00;87.00
69895;DHT22;57172;52.034;5.090;2023-07-22T05:45:52;16.00;86.80
69895;DHT22;57172;52.034;5.090;2023-07-22T05:48:19;16.00;86.80
69895;DHT22;57172;52.034;5.090;2023-07-22T05:50:45;16.10;86.60
69895;DHT22;57172;52.034;5.090;2023-07-22T05:53:13;16.10;86.50
69895;DHT22;57172;52.034;5.090;2023-07-22T05:55:40;16.20;86.60
69895;DHT22;57172;52.034;5.090;2023-07-22T05:58:07;16.20;86.30
69895;DHT22;57172;52.034;5.090;2023-07-22T06:00:41;16.20;86.60
69895;DHT22;57172;52.034;5.090;2023-07-22T06:03:08;16.30;86.40
69895;DHT22;57172;52.034;5.090;2023-07-22T06:05:35;16.40;86.20
69895;DHT22;57172;52.034;5.090;2023-07-22T06:08:03;16.40;86.20
69895;DHT22;57172;52.034;5.090;2023-07-22T06:10:31;16.50;86.60
69895;DHT22;57172;52.034;5.090;2023-07-22T06:12:58;16.60;86.50
69895;DHT22;57172;52.034;5.090;2023-07-22T06:15:25;16.70;86.50
69895;DHT22;57172;52.034;5.090;2023-07-22T06:17:52;16.70;85.60
69895;DHT22;57172;52.034;5.090;2023-07-22T06:20:19;16.80;86.30
69895;DHT22;57172;52.034;5.090;2023-07-22T06:22:46;16.90;86.00
69895;DHT22;57172;52.034;5.090;2023-07-22T06:25:13;17.00;85.80
69895;DHT22;57172;52.034;5.090;2023-07-22T06:27:40;17.00;86.10
69895;DHT22;57172;52.034;5.090;2023-07-22T06:30:07;17.20;85.80
69895;DHT22;57172;52.034;5.090;2023-07-22T06:32:36;17.20;85.60
69895;DHT22;57172;52.034;5.090;2023-07-22T06:35:04;17.30;84.70
69895;DHT22;57172;52.034;5.090;2023-07-22T06:37:31;17.40;84.20
69895;DHT22;57172;52.034;5.090;2023-07-22T06:39:58;17.40;83.90
69895;DHT22;57172;52.034;5.090;2023-07-22T06:42:25;17.50;84.30
69895;DHT22;57172;52.034;5.090;2023-07-22T06:44:53;17.50;83.50
69895;DHT22;57172;52.034;5.090;2023-07-22T06:47:20;17.50;83.00
69895;DHT22;57172;52.034;5.090;2023-07-22T06:49:46;17.60;83.30
69895;DHT22;57172;52.034;5.090;2023-07-22T06:52:14;17.60;82.60
69895;DHT22;57172;52.034;5.090;2023-07-22T06:54:41;17.60;82.50
69895;DHT22;57172;52.034;5.090;2023-07-22T06:57:08;17.60;81.70
69895;DHT22;57172;52.034;5.090;2023-07-22T06:59:35;17.70;82.50
69895;DHT22;57172;52.034;5.090;2023-07-22T07:02:03;17.70;82.10
69895;DHT22;57172;52.034;5.090;2023-07-22T07:04:31;17.80;81.70
69895;DHT22;57172;52.034;5.090;2023-07-22T07:06:58;17.80;81.30
69895;DHT22;57172;52.034;5.090;2023-07-22T07:09:26;17.80;81.60
69895;DHT22;57172;52.034;5.090;2023-07-22T07:11:53;17.90;82.00
69895;DHT22;57172;52.034;5.090;2023-07-22T07:14:24;18.00;81.50
69895;DHT22;57172;52.034;5.090;2023-07-22T07:16:54;18.00;81.30
69895;DHT22;57172;52.034;5.090;2023-07-22T07:19:22;18.10;80.90
69895;DHT22;57172;52.034;5.090;2023-07-22T07:21:49;18.20;80.80
69895;DHT22;57172;52.034;5.090;2023-07-22T07:24:17;18.30;80.90
69895;DHT22;57172;52.034;5.090;2023-07-22T07:26:44;18.40;80.60
69895;DHT22;57172;52.034;5.090;2023-07-22T07:29:11;18.60;80.00
69895;DHT22;57172;52.034;5.090;2023-07-22T07:31:43;18.70;78.50
69895;DHT22;57172;52.034;5.090;2023-07-22T07:34:10;18.80;78.50
69895;DHT22;57172;52.034;5.090;2023-07-22T07:36:37;18.80;78.40
69895;DHT22;57172;52.034;5.090;2023-07-22T07:39:04;18.90;78.50
69895;DHT22;57172;52.034;5.090;2023-07-22T07:41:30;19.00;78.00
69895;DHT22;57172;52.034;5.090;2023-07-22T07:43:57;19.10;77.70
69895;DHT22;57172;52.034;5.090;2023-07-22T07:46:27;19.20;76.80
69895;DHT22;57172;52.034;5.090;2023-07-22T07:48:56;19.30;77.10
69895;DHT22;57172;52.034;5.090;2023-07-22T07:51:25;19.50;76.10
69895;DHT22;57172;52.034;5.090;2023-07-22T07:53:54;19.50;76.00
69895;DHT22;57172;52.034;5.090;2023-07-22T07:56:22;19.70;76.10
69895;DHT22;57172;52.034;5.090;2023-07-22T07:58:50;19.70;74.20
69895;DHT22;57172;52.034;5.090;2023-07-22T08:01:17;19.70;74.10
69895;DHT22;57172;52.034;5.090;2023-07-22T08:03:44;19.70;74.50
69895;DHT22;57172;52.034;5.090;2023-07-22T08:06:12;19.80;74.80
69895;DHT22;57172;52.034;5.090;2023-07-22T08:08:40;19.90;74.30
69895;DHT22;57172;52.034;5.090;2023-07-22T08:11:12;20.00;73.40
69895;DHT22;57172;52.034;5.090;2023-07-22T08:13:41;20.00;72.70
69895;DHT22;57172;52.034;5.090;2023-07-22T08:16:09;20.10;71.30
69895;DHT22;57172;52.034;5.090;2023-07-22T08:18:37;20.00;71.20
69895;DHT22;57172;52.034;5.090;2023-07-22T08:21:05;20.00;71.90
69895;DHT22;57172;52.034;5.090;2023-07-22T08:23:34;20.00;71.60
69895;DHT22;57172;52.034;5.090;2023-07-22T08:26:01;20.10;71.60
69895;DHT22;57172;52.034;5.090;2023-07-22T08:28:29;20.30;70.80
69895;DHT22;57172;52.034;5.090;2023-07-22T08:30:57;20.40;70.20
69895;DHT22;57172;52.034;5.090;2023-07-22T08:33:24;20.40;69.70
69895;DHT22;57172;52.034;5.090;2023-07-22T08:36:06;20.40;70.20
69895;DHT22;57172;52.034;5.090;2023-07-22T08:38:34;20.50;69.80
69895;DHT22;57172;52.034;5.090;2023-07-22T08:41:01;20.50;69.60
69895;DHT22;57172;52.034;5.090;2023-07-22T08:43:29;20.80;70.00
69895;DHT22;57172;52.034;5.090;2023-07-22T08:46:00;20.90;69.10
69895;DHT22;57172;52.034;5.090;2023-07-22T08:48:30;21.00;68.80
69895;DHT22;57172;52.034;5.090;2023-07-22T08:51:18;21.10;68.20
69895;DHT22;57172;52.034;5.090;2023-07-22T08:53:46;21.20;67.40
69895;DHT22;57172;52.034;5.090;2023-07-22T08:56:34;21.20;66.20
69895;DHT22;57172;52.034;5.090;2023-07-22T08:59:01;21.20;64.50
69895;DHT22;57172;52.034;5.090;2023-07-22T09:01:28;21.00;64.60
69895;DHT22;57172;52.034;5.090;2023-07-22T09:03:56;21.00;64.50
69895;DHT22;57172;52.034;5.090;2023-07-22T09:06:25;21.00;64.50
69895;DHT22;57172;52.034;5.090;2023-07-22T09:08:52;20.90;64.50
69895;DHT22;57172;52.034;5.090;2023-07-22T09:11:20;20.90;64.40
69895;DHT22;57172;52.034;5.090;2023-07-22T09:13:47;21.00;64.90
69895;DHT22;57172;52.034;5.090;2023-07-22T09:16:15;21.00;64.50
69895;DHT22;57172;52.034;5.090;2023-07-22T09:18:44;21.10;64.80
69895;DHT22;57172;52.034;5.090;2023-07-22T09:21:11;21.20;64.00
69895;DHT22;57172;52.034;5.090;2023-07-22T09:23:38;21.20;63.60
69895;DHT22;57172;52.034;5.090;2023-07-22T09:26:13;21.20;63.80
69895;DHT22;57172;52.034;5.090;2023-07-22T09:28:55;21.30;64.00
69895;DHT22;57172;52.034;5.090;2023-07-22T09:31:24;21.50;63.70
69895;DHT22;57172;52.034;5.090;2023-07-22T09:33:52;21.50;62.80
69895;DHT22;57172;52.034;5.090;2023-07-22T09:36:22;21.50;63.00
69895;DHT22;57172;52.034;5.090;2023-07-22T09:39:02;21.70;62.80
69895;DHT22;57172;52.034;5.090;2023-07-22T09:41:30;21.90;61.90
69895;DHT22;57172;52.034;5.090;2023-07-22T09:44:01;22.00;61.10
69895;DHT22;57172;52.034;5.090;2023-07-22T09:46:32;22.10;60.40
69895;DHT22;57172;52.034;5.090;2023-07-22T09:49:07;22.00;60.30
69895;DHT22;57172;52.034;5.090;2023-07-22T09:51:39;22.00;60.70
69895;DHT22;57172;52.034;5.090;2023-07-22T09:54:22;22.20;61.20
69895;DHT22;57172;52.034;5.090;2023-07-22T09:56:50;22.40;60.10
69895;DHT22;57172;52.034;5.090;2023-07-22T09:59:18;22.50;58.20
69895;DHT22;57172;52.034;5.090;2023-07-22T10:01:46;22.40;57.00
69895;DHT22;57172;52.034;5.090;2023-07-22T10:04:17;22.30;57.50
69895;DHT22;57172;52.034;5.090;2023-07-22T10:06:45;22.30;58.50
69895;DHT22;57172;52.034;5.090;2023-07-22T10:09:13;22.40;57.50
69895;DHT22;57172;52.034;5.090;2023-07-22T10:11:41;22.60;57.50
69895;DHT22;57172;52.034;5.090;2023-07-22T10:14:08;22.60;56.90
69895;DHT22;57172;52.034;5.090;2023-07-22T10:16:36;22.50;56.40
69895;DHT22;57172;52.034;5.090;2023-07-22T10:19:04;22.50;56.50
69895;DHT22;57172;52.034;5.090;2023-07-22T10:21:32;22.30;56.40
69895;DHT22;57172;52.034;5.090;2023-07-22T10:24:00;22.10;56.90
69895;DHT22;57172;52.034;5.090;2023-07-22T10:26:28;22.10;56.80
69895;DHT22;57172;52.034;5.090;2023-07-22T10:29:13;22.00;56.70
69895;DHT22;57172;52.034;5.090;2023-07-22T10:31:41;21.80;56.40
69895;DHT22;57172;52.034;5.090;2023-07-22T10:34:08;21.60;56.70
69895;DHT22;57172;52.034;5.090;2023-07-22T10:36:35;21.50;57.30
69895;DHT22;57172;52.034;5.090;2023-07-22T10:39:03;21.40;57.30
69895;DHT22;57172;52.034;5.090;2023-07-22T10:41:32;21.30;57.30
69895;DHT22;57172;52.034;5.090;2023-07-22T10:43:59;21.10;57.80
69895;DHT22;57172;52.034;5.090;2023-07-22T10:46:33;21.10;58.40
69895;DHT22;57172;52.034;5.090;2023-07-22T10:49:14;21.10;58.90
69895;DHT22;57172;52.034;5.090;2023-07-22T10:51:51;21.20;58.70
69895;DHT22;57172;52.034;5.090;2023-07-22T10:54:44;21.30;58.70
69895;DHT22;57172;52.034;5.090;2023-07-22T10:59:49;21.50;58.80
69895;DHT22;57172;52.034;5.090;2023-07-22T11:02:27;21.60;58.60
69895;DHT22;57172;52.034;5.090;2023-07-22T11:04:59;21.60;58.60
69895;DHT22;57172;52.034;5.090;2023-07-22T11:07:52;21.60;58.60
69895;DHT22;57172;52.034;5.090;2023-07-22T11:10:28;21.50;58.80
69895;DHT22;57172;52.034;5.090;2023-07-22T11:12:55;21.40;58.90
69895;DHT22;57172;52.034;5.090;2023-07-22T11:15:22;21.30;59.20
69895;DHT22;57172;52.034;5.090;2023-07-22T11:17:50;21.30;59.40
69895;DHT22;57172;52.034;5.090;2023-07-22T11:20:16;21.50;59.80
69895;DHT22;57172;52.034;5.090;2023-07-22T11:22:43;21.90;60.30
69895;DHT22;57172;52.034;5.090;2023-07-22T11:25:17;22.30;58.70
69895;DHT22;57172;52.034;5.090;2023-07-22T11:27:45;22.30;57.60
69895;DHT22;57172;52.034;5.090;2023-07-22T11:30:12;22.10;57.10
69895;DHT22;57172;52.034;5.090;2023-07-22T11:32:42;22.00;57.10
69895;DHT22;57172;52.034;5.090;2023-07-22T11:35:10;21.80;57.60
69895;DHT22;57172;52.034;5.090;2023-07-22T11:37:37;21.70;57.70
69895;DHT22;57172;52.034;5.090;2023-07-22T11:40:04;21.50;57.90
69895;DHT22;57172;52.034;5.090;2023-07-22T11:42:34;21.30;58.30
69895;DHT22;57172;52.034;5.090;2023-07-22T11:45:01;21.20;59.40
69895;DHT22;57172;52.034;5.090;2023-07-22T11:47:31;21.10;60.30
69895;DHT22;57172;52.034;5.090;2023-07-22T11:49:58;21.10;61.90
69895;DHT22;57172;52.034;5.090;2023-07-22T11:52:26;21.30;62.30
69895;DHT22;57172;52.034;5.090;2023-07-22T11:54:52;21.60;63.40
69895;DHT22;57172;52.034;5.090;2023-07-22T11:57:23;22.00;62.00
69895;DHT22;57172;52.034;5.090;2023-07-22T11:59:52;22.10;61.40
69895;DHT22;57172;52.034;5.090;2023-07-22T12:02:24;22.10;61.20
69895;DHT22;57172;52.034;5.090;2023-07-22T12:05:01;22.10;60.90
69895;DHT22;57172;52.034;5.090;2023-07-22T12:07:36;22.00;59.60
69895;DHT22;57172;52.034;5.090;2023-07-22T12:10:05;21.90;58.80
69895;DHT22;57172;52.034;5.090;2023-07-22T12:12:37;21.80;58.80
69895;DHT22;57172;52.034;5.090;2023-07-22T12:15:10;21.70;58.80
69895;DHT22;57172;52.034;5.090;2023-07-22T12:17:54;21.70;58.70
69895;DHT22;57172;52.034;5.090;2023-07-22T12:20:27;21.70;58.50
69895;DHT22;57172;52.034;5.090;2023-07-22T12:22:55;21.60;58.60
69895;DHT22;57172;52.034;5.090;2023-07-22T12:25:22;21.60;59.40
69895;DHT22;57172;52.034;5.090;2023-07-22T12:27:50;21.50;59.40
69895;DHT22;57172;52.034;5.090;2023-07-22T12:30:17;21.30;60.00
69895;DHT22;57172;52.034;5.090;2023-07-22T12:32:47;21.30;60.60
69895;DHT22;57172;52.034;5.090;2023-07-22T12:35:15;21.30;60.40
69895;DHT22;57172;52.034;5.090;2023-07-22T12:37:42;21.20;59.30
69895;DHT22;57172;52.034;5.090;2023-07-22T12:40:10;21.20;59.00
69895;DHT22;57172;52.034;5.090;2023-07-22T12:42:39;21.00;59.20
69895;DHT22;57172;52.034;5.090;2023-07-22T12:45:08;21.00;59.50
69895;DHT22;57172;52.034;5.090;2023-07-22T12:47:35;21.00;59.30
69895;DHT22;57172;52.034;5.090;2023-07-22T12:50:03;20.90;59.10
69895;DHT22;57172;52.034;5.090;2023-07-22T12:52:31;20.80;59.00
69895;DHT22;57172;52.034;5.090;2023-07-22T12:54:58;20.60;59.00
69895;DHT22;57172;52.034;5.090;2023-07-22T12:57:25;20.50;59.10
69895;DHT22;57172;52.034;5.090;2023-07-22T12:59:52;20.20;59.70
69895;DHT22;57172;52.034;5.090;2023-07-22T13:02:19;20.10;60.10
69895;DHT22;57172;52.034;5.090;2023-07-22T13:04:46;20.10;60.40
69895;DHT22;57172;52.034;5.090;2023-07-22T13:07:13;20.10;60.40
69895;DHT22;57172;52.034;5.090;2023-07-22T13:09:40;20.10;59.90
69895;DHT22;57172;52.034;5.090;2023-07-22T13:12:09;20.00;59.50
69895;DHT22;57172;52.034;5.090;2023-07-22T13:14:36;20.00;58.80
69895;DHT22;57172;52.034;5.090;2023-07-22T13:17:05;19.80;58.90
69895;DHT22;57172;52.034;5.090;2023-07-22T13:19:33;19.80;59.20
69895;DHT22;57172;52.034;5.090;2023-07-22T13:22:00;19.70;59.50
69895;DHT22;57172;52.034;5.090;2023-07-22T13:24:27;19.60;60.00
69895;DHT22;57172;52.034;5.090;2023-07-22T13:26:54;19.50;60.40
69895;DHT22;57172;52.034;5.090;2023-07-22T13:29:21;19.50;60.50
69895;DHT22;57172;52.034;5.090;2023-07-22T13:31:47;19.50;61.00
69895;DHT22;57172;52.034;5.090;2023-07-22T13:34:14;19.60;60.80
69895;DHT22;57172;52.034;5.090;2023-07-22T13:36:42;19.70;60.90
69895;DHT22;57172;52.034;5.090;2023-07-22T13:39:09;19.80;60.40
69895;DHT22;57172;52.034;5.090;2023-07-22T13:41:36;19.90;59.80
69895;DHT22;57172;52.034;5.090;2023-07-22T13:44:03;19.80;59.50
69895;DHT22;57172;52.034;5.090;2023-07-22T13:46:30;19.80;59.80
69895;DHT22;57172;52.034;5.090;2023-07-22T13:48:57;19.80;59.70
69895;DHT22;57172;52.034;5.090;2023-07-22T13:51:24;19.80;59.80
69895;DHT22;57172;52.034;5.090;2023-07-22T13:53:51;19.80;60.10
69895;DHT22;57172;52.034;5.090;2023-07-22T13:56:21;19.80;60.30
69895;DHT22;57172;52.034;5.090;2023-07-22T13:58:48;20.00;60.40
69895;DHT22;57172;52.034;5.090;2023-07-22T14:01:15;20.10;60.40
69895;DHT22;57172;52.034;5.090;2023-07-22T14:03:42;20.30;60.30
69895;DHT22;57172;52.034;5.090;2023-07-22T14:06:09;20.50;59.70
69895;DHT22;57172;52.034;5.090;2023-07-22T14:08:36;20.50;59.20
69895;DHT22;57172;52.034;5.090;2023-07-22T14:11:03;20.50;59.00
69895;DHT22;57172;52.034;5.090;2023-07-22T14:13:30;20.50;58.90
69895;DHT22;57172;52.034;5.090;2023-07-22T14:15:57;20.60;59.10
69895;DHT22;57172;52.034;5.090;2023-07-22T14:18:44;20.70;58.80
69895;DHT22;57172;52.034;5.090;2023-07-22T14:21:11;20.60;58.60
69895;DHT22;57172;52.034;5.090;2023-07-22T14:23:38;20.60;58.70
69895;DHT22;57172;52.034;5.090;2023-07-22T14:26:05;20.60;58.80
69895;DHT22;57172;52.034;5.090;2023-07-22T14:28:32;20.70;58.70
69895;DHT22;57172;52.034;5.090;2023-07-22T14:30:59;20.70;58.70
69895;DHT22;57172;52.034;5.090;2023-07-22T14:33:26;20.70;58.40
69895;DHT22;57172;52.034;5.090;2023-07-22T14:35:53;20.70;58.20
69895;DHT22;57172;52.034;5.090;2023-07-22T14:38:20;20.60;58.40
69895;DHT22;57172;52.034;5.090;2023-07-22T14:40:47;20.60;58.60
69895;DHT22;57172;52.034;5.090;2023-07-22T14:43:14;20.70;58.40
69895;DHT22;57172;52.034;5.090;2023-07-22T14:45:41;20.60;58.10
69895;DHT22;57172;52.034;5.090;2023-07-22T14:48:08;20.60;58.10
69895;DHT22;57172;52.034;5.090;2023-07-22T14:50:35;20.50;58.10
69895;DHT22;57172;52.034;5.090;2023-07-22T14:53:01;20.40;58.30
69895;DHT22;57172;52.034;5.090;2023-07-22T14:55:29;20.40;58.50
69895;DHT22;57172;52.034;5.090;2023-07-22T14:57:56;20.40;58.40
69895;DHT22;57172;52.034;5.090;2023-07-22T15:00:23;20.40;58.00
69895;DHT22;57172;52.034;5.090;2023-07-22T15:02:50;20.20;58.30
69895;DHT22;57172;52.034;5.090;2023-07-22T15:05:17;20.00;58.90
69895;DHT22;57172;52.034;5.090;2023-07-22T15:07:44;19.90;59.20
69895;DHT22;57172;52.034;5.090;2023-07-22T15:10:11;19.90;59.50
69895;DHT22;57172;52.034;5.090;2023-07-22T15:12:39;19.90;59.60
69895;DHT22;57172;52.034;5.090;2023-07-22T15:15:06;19.90;59.70
69895;DHT22;57172;52.034;5.090;2023-07-22T15:17:33;19.90;60.00
69895;DHT22;57172;52.034;5.090;2023-07-22T15:20:00;19.90;60.40
69895;DHT22;57172;52.034;5.090;2023-07-22T15:22:27;19.90;60.50
69895;DHT22;57172;52.034;5.090;2023-07-22T15:24:54;19.90;60.60
69895;DHT22;57172;52.034;5.090;2023-07-22T15:27:21;19.90;60.50
69895;DHT22;57172;52.034;5.090;2023-07-22T15:29:49;19.90;60.60
69895;DHT22;57172;52.034;5.090;2023-07-22T15:32:16;19.90;60.80
69895;DHT22;57172;52.034;5.090;2023-07-22T15:34:42;19.90;61.00
69895;DHT22;57172;52.034;5.090;2023-07-22T15:37:09;20.10;61.50
69895;DHT22;57172;52.034;5.090;2023-07-22T15:39:36;20.30;61.40